Time;durP1;ratioP1;P1;durP2;ratioP2;P2;SDS_P1;SDS_P2;PMS_P1;PMS_P2;Temp;Humidity;BMP_temperature;BMP_pressure;BME280_temperature;BME280_humidity;BME280_pressure;Samples;Min_cycle;Max_cycle;Signal;HPM_P1;HPM_P2
2023/03/28 00:00:05;;;;;;;18.85;2.88;;;;;;;;;;4972199;28;99322;-77
2023/03/28 00:02:31;;;;;;;18.05;2.75;;;;;;;;;;4973298;28;100026;-77
2023/03/28 00:04:58;;;;;;;8.02;2.60;;;;;;;;;;4973301;28;100568;-77
2023/03/28 00:07:26;;;;;;;8.65;2.20;;;;;;;;;;4991842;28;98497;-79
2023/03/28 00:09:52;;;;;;;10.73;2.90;;;;;;;;;;4994976;28;98030;-80
2023/03/28 00:12:19;;;;;;;8.82;2.60;;;;;;;;;;5014222;28;98577;-78
2023/03/28 00:14:45;;;;;;;11.60;2.85;;;;;;;;;;5013262;28;99134;-77
2023/03/28 00:17:12;;;;;;;12.65;2.38;;;;;;;;;;5016378;28;101725;-78
2023/03/28 00:19:40;;;;;;;12.07;2.90;;;;;;;;;;5003341;28;99288;-77
2023/03/28 00:22:07;;;;;;;15.23;3.28;;;;;;;;;;4996858;28;100289;-76
2023/03/28 00:24:37;;;;;;;16.35;3.05;;;;;;;;;;4991983;28;100756;-77
2023/03/28 00:27:05;;;;;;;12.00;2.47;;;;;;;;;;4995479;28;98359;-77
2023/03/28 00:29:32;;;;;;;6.05;1.88;;;;;;;;;;5013590;28;98365;-78
2023/03/28 00:31:59;;;;;;;14.23;2.60;;;;;;;;;;5012930;28;98560;-78
2023/03/28 00:34:25;;;;;;;8.70;2.13;;;;;;;;;;5012974;28;98520;-78
2023/03/28 00:36:54;;;;;;;12.77;2.67;;;;;;;;;;5008716;28;98406;-77
2023/03/28 00:39:21;;;;;;;6.95;2.42;;;;;;;;;;4995162;28;100061;-76
2023/03/28 00:41:48;;;;;;;8.15;2.10;;;;;;;;;;4991015;28;100541;-76
2023/03/28 00:44:33;;;;;;;11.60;2.03;;;;;;;;;;4989718;28;99718;-76
2023/03/28 00:46:59;;;;;;;6.82;2.47;;;;;;;;;;4990993;28;98669;-76
2023/03/28 00:49:26;;;;;;;12.63;2.63;;;;;;;;;;4990688;28;99328;-76
2023/03/28 00:51:55;;;;;;;10.98;2.63;;;;;;;;;;4989956;28;99488;-76
2023/03/28 00:54:24;;;;;;;12.33;2.67;;;;;;;;;;4973945;28;98815;-76
2023/03/28 00:56:53;;;;;;;8.32;2.22;;;;;;;;;;4968462;28;99613;-76
2023/03/28 00:59:22;;;;;;;11.45;2.05;;;;;;;;;;4985341;28;99505;-76
2023/03/28 01:01:48;;;;;;;9.95;2.08;;;;;;;;;;4984080;28;98591;-77
2023/03/28 01:04:19;;;;;;;13.18;2.13;;;;;;;;;;5006868;28;99470;-77
2023/03/28 01:06:47;;;;;;;17.75;2.63;;;;;;;;;;5010521;28;97817;-77
2023/03/28 01:09:15;;;;;;;7.78;2.00;;;;;;;;;;5010429;28;98411;-76
2023/03/28 01:11:43;;;;;;;11.43;2.47;;;;;;;;;;4974282;28;99546;-76
2023/03/28 01:14:12;;;;;;;10.63;2.78;;;;;;;;;;4972857;28;99413;-78
2023/03/28 01:16:40;;;;;;;13.02;2.97;;;;;;;;;;4987347;28;101057;-77
2023/03/28 01:19:29;;;;;;;12.32;1.92;;;;;;;;;;4981771;28;99757;-77
2023/03/28 01:22:14;;;;;;;12.88;2.42;;;;;;;;;;4970190;28;99741;-77
2023/03/28 01:24:46;;;;;;;7.82;2.22;;;;;;;;;;4973421;28;99172;-77
2023/03/28 01:27:27;;;;;;;10.82;2.65;;;;;;;;;;4970241;28;98522;-77
2023/03/28 01:30:00;;;;;;;9.50;2.00;;;;;;;;;;4970669;28;99168;-78
2023/03/28 01:32:45;;;;;;;5.22;2.03;;;;;;;;;;4970512;28;99811;-77
2023/03/28 01:35:17;;;;;;;9.55;2.10;;;;;;;;;;4983753;28;99141;-77
2023/03/28 01:37:53;;;;;;;10.18;2.20;;;;;;;;;;4950585;28;99136;-77
2023/03/28 01:40:48;;;;;;;10.07;1.90;;;;;;;;;;4949577;28;100284;-77
2023/03/28 01:43:26;;;;;;;11.02;1.88;;;;;;;;;;4911163;28;98635;-77
2023/03/28 01:45:59;;;;;;;14.20;2.42;;;;;;;;;;4911341;28;99029;-78
2023/03/28 01:48:31;;;;;;;9.23;3.33;;;;;;;;;;4934242;28;100649;-77
2023/03/28 01:51:07;;;;;;;12.35;2.60;;;;;;;;;;4931338;28;100180;-78
2023/03/28 01:53:45;;;;;;;8.85;2.47;;;;;;;;;;4941478;28;99533;-78
2023/03/28 01:56:14;;;;;;;11.18;2.90;;;;;;;;;;4950258;28;98712;-77
2023/03/28 01:59:05;;;;;;;16.35;2.65;;;;;;;;;;4934912;28;100433;-77
2023/03/28 02:02:04;;;;;;;9.80;2.47;;;;;;;;;;4940708;28;100735;-77
2023/03/28 02:04:32;;;;;;;11.77;2.88;;;;;;;;;;4931045;28;99727;-77
2023/03/28 02:06:59;;;;;;;12.90;2.40;;;;;;;;;;4914522;28;99480;-78
2023/03/28 02:09:26;;;;;;;14.35;2.45;;;;;;;;;;4929861;28;99591;-77
2023/03/28 02:11:58;;;;;;;9.23;2.28;;;;;;;;;;4933749;28;98680;-78
2023/03/28 02:14:26;;;;;;;8.80;2.08;;;;;;;;;;4930259;28;100685;-77
2023/03/28 02:16:56;;;;;;;12.57;2.30;;;;;;;;;;4930734;28;99276;-78
2023/03/28 02:19:26;;;;;;;10.32;2.67;;;;;;;;;;4943593;28;99134;-77
2023/03/28 02:22:10;;;;;;;9.48;3.13;;;;;;;;;;4957130;28;99616;-77
2023/03/28 02:24:37;;;;;;;13.05;2.25;;;;;;;;;;4950185;28;97853;-77
2023/03/28 02:27:07;;;;;;;11.82;2.97;;;;;;;;;;4950120;28;98542;-77
2023/03/28 02:29:37;;;;;;;10.10;2.70;;;;;;;;;;4949894;28;99369;-77
2023/03/28 02:32:04;;;;;;;;;;;;;;;;;;4953194;28;99413;-75
2023/03/28 02:34:31;;;;;;;9.40;2.35;;;;;;;;;;4950788;28;129236;-77
2023/03/28 02:37:14;;;;;;;14.55;2.75;;;;;;;;;;4949615;28;98721;-77
2023/03/28 02:39:47;;;;;;;20.25;2.78;;;;;;;;;;4977361;28;99841;-77
2023/03/28 02:42:33;;;;;;;9.45;2.45;;;;;;;;;;4989755;28;99506;-76
2023/03/28 02:45:19;;;;;;;11.60;2.53;;;;;;;;;;4990363;28;98785;-77
2023/03/28 02:48:04;;;;;;;17.42;3.45;;;;;;;;;;4991586;28;99130;-78
2023/03/28 02:50:38;;;;;;;16.38;3.10;;;;;;;;;;4991323;28;99558;-78
2023/03/28 02:53:11;;;;;;;11.40;2.95;;;;;;;;;;4993261;28;98914;-78
2023/03/28 02:55:53;;;;;;;9.85;2.47;;;;;;;;;;5013339;28;99345;-77
2023/03/28 02:58:23;;;;;;;7.85;2.22;;;;;;;;;;4996763;28;99835;-77
2023/03/28 03:00:50;;;;;;;12.10;2.63;;;;;;;;;;4988696;28;99871;-77
2023/03/28 03:03:16;;;;;;;12.35;2.67;;;;;;;;;;4977364;28;99499;-77
2023/03/28 03:05:42;;;;;;;8.88;2.35;;;;;;;;;;4981121;28;98518;-77
2023/03/28 03:08:10;;;;;;;8.15;2.83;;;;;;;;;;4980826;28;99222;-77
2023/03/28 03:10:37;;;;;;;16.40;2.85;;;;;;;;;;4983960;28;99488;-76
2023/03/28 03:13:03;;;;;;;12.05;2.65;;;;;;;;;;4988204;28;99065;-76
2023/03/28 03:15:34;;;;;;;11.65;3.00;;;;;;;;;;4989690;28;99400;-76
2023/03/28 03:18:00;;;;;;;13.13;3.08;;;;;;;;;;5000009;28;99851;-76
2023/03/28 03:20:32;;;;;;;11.60;2.88;;;;;;;;;;4985663;28;99524;-76
2023/03/28 03:22:59;;;;;;;9.82;3.05;;;;;;;;;;4989633;28;100226;-76
2023/03/28 03:25:27;;;;;;;10.25;2.55;;;;;;;;;;4990819;28;98520;-76
2023/03/28 03:27:53;;;;;;;8.85;2.47;;;;;;;;;;4970990;28;99001;-77
2023/03/28 03:30:19;;;;;;;7.82;3.08;;;;;;;;;;4970320;28;99814;-78
2023/03/28 03:32:46;;;;;;;12.95;2.60;;;;;;;;;;4974926;28;98502;-77
2023/03/28 03:35:12;;;;;;;6.70;2.75;;;;;;;;;;4977323;28;99390;-77
2023/03/28 03:37:38;;;;;;;11.43;2.85;;;;;;;;;;4970735;28;98611;-78
2023/03/28 03:40:05;;;;;;;9.20;2.53;;;;;;;;;;4989621;28;98186;-77
2023/03/28 03:42:32;;;;;;;11.30;2.80;;;;;;;;;;4970687;28;99621;-77
2023/03/28 03:44:58;;;;;;;12.18;3.60;;;;;;;;;;4970783;28;98577;-77
2023/03/28 03:47:24;;;;;;;6.25;2.78;;;;;;;;;;4995241;28;99466;-77
2023/03/28 03:49:51;;;;;;;19.77;3.88;;;;;;;;;;5009929;28;99480;-77
2023/03/28 03:52:17;;;;;;;11.60;3.85;;;;;;;;;;4985593;28;98512;-77
2023/03/28 03:54:44;;;;;;;13.40;3.33;;;;;;;;;;4987036;28;100412;-78
2023/03/28 03:57:10;;;;;;;8.30;2.63;;;;;;;;;;4975067;28;100733;-78
2023/03/28 03:59:37;;;;;;;9.07;3.15;;;;;;;;;;4977048;28;98898;-77
2023/03/28 04:02:03;;;;;;;13.77;3.28;;;;;;;;;;4995668;28;99555;-78
2023/03/28 04:04:30;;;;;;;11.13;2.70;;;;;;;;;;4981337;28;98440;-77
2023/03/28 04:06:57;;;;;;;10.18;2.60;;;;;;;;;;4987185;28;98528;-78
2023/03/28 04:09:26;;;;;;;8.95;2.90;;;;;;;;;;4982731;28;100006;-78
2023/03/28 04:11:52;;;;;;;16.10;3.00;;;;;;;;;;4981491;28;99354;-78
2023/03/28 04:14:19;;;;;;;10.50;2.92;;;;;;;;;;4976449;28;103203;-78
2023/03/28 04:16:48;;;;;;;13.38;3.17;;;;;;;;;;4985126;28;99579;-78
2023/03/28 04:19:15;;;;;;;10.10;2.70;;;;;;;;;;4977413;28;98688;-78
2023/03/28 04:21:46;;;;;;;9.02;2.80;;;;;;;;;;4985840;28;99195;-77
2023/03/28 04:24:16;;;;;;;11.65;3.20;;;;;;;;;;4985728;28;99775;-78
2023/03/28 04:26:44;;;;;;;11.88;2.83;;;;;;;;;;4987672;28;99202;-76
2023/03/28 04:29:11;;;;;;;9.98;2.92;;;;;;;;;;4978444;28;98824;-77
2023/03/28 04:31:38;;;;;;;12.02;4.05;;;;;;;;;;4970000;28;98565;-77
2023/03/28 04:34:05;;;;;;;8.93;2.97;;;;;;;;;;4970807;28;99148;-77
2023/03/28 04:36:31;;;;;;;12.88;3.70;;;;;;;;;;4968340;28;101209;-77
2023/03/28 04:39:00;;;;;;;10.80;3.33;;;;;;;;;;4970447;28;98731;-77
2023/03/28 04:41:27;;;;;;;7.03;3.05;;;;;;;;;;4983014;28;99391;-77
2023/03/28 04:43:54;;;;;;;10.52;3.55;;;;;;;;;;4977336;28;100611;-79
2023/03/28 04:46:20;;;;;;;7.10;3.13;;;;;;;;;;4977377;28;99720;-77
2023/03/28 04:48:47;;;;;;;9.20;3.70;;;;;;;;;;4992468;28;99678;-77
2023/03/28 04:51:21;;;;;;;10.77;3.80;;;;;;;;;;4984364;28;99129;-78
2023/03/28 04:53:48;;;;;;;8.98;3.72;;;;;;;;;;4974421;28;99400;-78
2023/03/28 04:56:14;;;;;;;12.18;3.20;;;;;;;;;;4973151;28;99490;-77
2023/03/28 04:58:40;;;;;;;9.32;4.10;;;;;;;;;;4973694;28;98543;-77
2023/03/28 05:01:10;;;;;;;15.18;3.10;;;;;;;;;;4992068;28;99531;-77
2023/03/28 05:03:36;;;;;;;10.47;3.30;;;;;;;;;;4992406;28;99485;-77
2023/03/28 05:06:03;;;;;;;22.10;3.90;;;;;;;;;;4995954;28;98470;-77
2023/03/28 05:08:31;;;;;;;11.52;3.40;;;;;;;;;;4985670;28;99423;-77
2023/03/28 05:10:58;;;;;;;9.70;3.30;;;;;;;;;;4990806;28;98538;-77
2023/03/28 05:13:24;;;;;;;10.00;3.80;;;;;;;;;;4999243;28;99536;-76
2023/03/28 05:15:51;;;;;;;12.32;3.60;;;;;;;;;;4970948;28;99911;-77
2023/03/28 05:18:17;;;;;;;11.05;3.47;;;;;;;;;;4992612;28;97878;-78
2023/03/28 05:20:43;;;;;;;13.80;4.22;;;;;;;;;;4992467;28;98758;-77
2023/03/28 05:23:10;;;;;;;13.55;4.68;;;;;;;;;;4992267;28;102088;-76
2023/03/28 05:25:36;;;;;;;11.88;4.25;;;;;;;;;;4981868;28;99287;-77
2023/03/28 05:28:03;;;;;;;17.67;5.57;;;;;;;;;;4985052;28;99980;-77
2023/03/28 05:30:29;;;;;;;14.57;4.40;;;;;;;;;;4983407;28;98657;-77
2023/03/28 05:32:56;;;;;;;16.30;4.28;;;;;;;;;;4980176;28;99218;-77
2023/03/28 05:35:22;;;;;;;14.57;4.55;;;;;;;;;;4984385;28;99590;-78
2023/03/28 05:37:49;;;;;;;18.48;5.15;;;;;;;;;;4982137;28;98720;-79
2023/03/28 05:40:15;;;;;;;21.98;3.90;;;;;;;;;;4986305;28;99231;-79
2023/03/28 05:42:41;;;;;;;15.95;3.80;;;;;;;;;;4981043;28;98718;-79
2023/03/28 05:45:09;;;;;;;10.18;4.05;;;;;;;;;;4970842;28;98970;-79
2023/03/28 05:47:35;;;;;;;10.38;4.20;;;;;;;;;;5000528;28;100376;-79
2023/03/28 05:50:02;;;;;;;18.73;5.20;;;;;;;;;;5012547;28;101358;-77
2023/03/28 05:52:29;;;;;;;21.35;4.82;;;;;;;;;;4991815;28;99937;-78
2023/03/28 05:54:56;;;;;;;18.40;4.70;;;;;;;;;;4989200;28;99672;-78
2023/03/28 05:57:22;;;;;;;6.88;4.15;;;;;;;;;;4980399;28;98873;-77
2023/03/28 05:59:50;;;;;;;12.82;5.40;;;;;;;;;;4973020;28;99194;-78
2023/03/28 06:02:17;;;;;;;20.95;6.00;;;;;;;;;;4972189;28;99471;-78
2023/03/28 06:04:44;;;;;;;11.73;4.82;;;;;;;;;;4998870;28;98534;-79
2023/03/28 06:07:11;;;;;;;15.15;5.45;;;;;;;;;;4976259;28;99542;-78
2023/03/28 06:09:37;;;;;;;13.00;4.93;;;;;;;;;;4991326;28;99501;-77
2023/03/28 06:12:04;;;;;;;14.68;5.72;;;;;;;;;;4995102;28;98567;-77
2023/03/28 06:14:30;;;;;;;11.68;5.40;;;;;;;;;;4980779;28;100359;-78
2023/03/28 06:16:57;;;;;;;28.52;5.85;;;;;;;;;;4976962;28;98546;-78
2023/03/28 06:19:24;;;;;;;21.25;5.80;;;;;;;;;;4985217;28;99771;-78
2023/03/28 06:21:50;;;;;;;10.50;5.20;;;;;;;;;;4989402;28;99772;-78
2023/03/28 06:24:17;;;;;;;15.10;5.55;;;;;;;;;;4987708;28;98687;-77
2023/03/28 06:26:43;;;;;;;14.18;5.10;;;;;;;;;;4981802;28;99372;-77
2023/03/28 06:29:10;;;;;;;19.08;5.45;;;;;;;;;;4991018;28;99703;-78
2023/03/28 06:31:37;;;;;;;12.77;5.28;;;;;;;;;;4991955;28;97813;-78
2023/03/28 06:34:03;;;;;;;14.40;5.63;;;;;;;;;;4985228;28;102045;-76
2023/03/28 06:36:30;;;;;;;17.90;6.53;;;;;;;;;;4971812;28;98679;-77
2023/03/28 06:38:57;;;;;;;18.63;6.32;;;;;;;;;;4977960;28;99339;-77
2023/03/28 06:41:23;;;;;;;20.20;5.20;;;;;;;;;;4986210;28;99984;-77
2023/03/28 06:43:50;;;;;;;11.60;5.30;;;;;;;;;;4990098;28;98627;-77
2023/03/28 06:46:16;;;;;;;15.20;5.10;;;;;;;;;;4990077;28;99769;-77
2023/03/28 06:48:42;;;;;;;12.90;4.90;;;;;;;;;;4979760;28;99565;-77
2023/03/28 06:51:11;;;;;;;12.40;4.90;;;;;;;;;;4970522;28;98537;-76
2023/03/28 06:53:38;;;;;;;18.52;5.53;;;;;;;;;;4973895;28;99573;-77
2023/03/28 06:56:05;;;;;;;11.63;5.07;;;;;;;;;;4981508;28;98096;-76
2023/03/28 06:58:31;;;;;;;20.10;5.70;;;;;;;;;;4990789;28;98563;-77
2023/03/28 07:00:58;;;;;;;24.15;6.22;;;;;;;;;;4980715;28;101877;-77
2023/03/28 07:03:25;;;;;;;11.65;5.03;;;;;;;;;;4995933;28;99278;-77
2023/03/28 07:05:51;;;;;;;16.17;4.50;;;;;;;;;;4989187;28;99909;-77
2023/03/28 07:08:18;;;;;;;13.98;4.55;;;;;;;;;;4975582;28;100440;-76
2023/03/28 07:10:44;;;;;;;12.13;5.10;;;;;;;;;;4971285;28;98502;-77
2023/03/28 07:13:11;;;;;;;9.38;4.00;;;;;;;;;;4988824;28;99202;-77
2023/03/28 07:15:37;;;;;;;25.00;5.40;;;;;;;;;;4986183;28;100424;-77
2023/03/28 07:18:05;;;;;;;14.80;4.85;;;;;;;;;;4985452;28;99678;-77
2023/03/28 07:20:31;;;;;;;14.73;4.63;;;;;;;;;;4983916;28;98784;-78
2023/03/28 07:22:58;;;;;;;21.35;5.25;;;;;;;;;;4977627;28;98537;-77
2023/03/28 07:25:24;;;;;;;20.65;4.40;;;;;;;;;;4977336;28;99796;-79
2023/03/28 07:27:51;;;;;;;17.27;5.20;;;;;;;;;;4988395;28;100423;-77
2023/03/28 07:30:17;;;;;;;15.15;5.00;;;;;;;;;;4984951;28;98979;-78
2023/03/28 07:32:44;;;;;;;14.68;5.15;;;;;;;;;;4988385;28;99139;-77
2023/03/28 07:35:22;;;;;;;23.92;5.65;;;;;;;;;;4990125;28;98448;-77
2023/03/28 07:37:48;;;;;;;14.85;5.30;;;;;;;;;;4993781;28;98586;-77
2023/03/28 07:40:15;;;;;;;22.98;6.80;;;;;;;;;;4988480;28;99485;-77
2023/03/28 07:42:41;;;;;;;16.17;5.07;;;;;;;;;;4987890;28;98603;-77
2023/03/28 07:45:08;;;;;;;15.40;5.82;;;;;;;;;;4989601;28;99237;-78
2023/03/28 07:47:35;;;;;;;14.23;5.47;;;;;;;;;;4987763;28;99202;-77
2023/03/28 07:50:02;;;;;;;17.38;5.03;;;;;;;;;;4985305;28;98522;-77
2023/03/28 07:52:29;;;;;;;16.40;5.35;;;;;;;;;;4973676;28;99382;-77
2023/03/28 07:54:55;;;;;;;14.27;5.20;;;;;;;;;;4985902;28;99511;-77
2023/03/28 07:57:22;;;;;;;17.58;4.57;;;;;;;;;;4989311;28;98532;-77
2023/03/28 07:59:49;;;;;;;18.70;5.15;;;;;;;;;;4992678;28;99353;-78
2023/03/28 08:02:16;;;;;;;17.92;5.25;;;;;;;;;;4990141;28;98507;-77
2023/03/28 08:04:42;;;;;;;16.67;5.13;;;;;;;;;;4985039;28;99756;-77
2023/03/28 08:07:09;;;;;;;11.07;5.10;;;;;;;;;;4986382;28;99486;-77
2023/03/28 08:09:36;;;;;;;16.63;5.43;;;;;;;;;;4989255;28;97769;-77
2023/03/28 08:12:02;;;;;;;12.85;4.80;;;;;;;;;;4985116;28;99449;-77
2023/03/28 08:14:29;;;;;;;12.82;4.80;;;;;;;;;;4988474;28;99551;-77
2023/03/28 08:16:55;;;;;;;14.93;4.70;;;;;;;;;;4987842;28;99227;-78
2023/03/28 08:19:21;;;;;;;17.90;4.55;;;;;;;;;;4993495;28;98769;-79
2023/03/28 08:21:48;;;;;;;15.98;5.28;;;;;;;;;;4998503;28;100632;-77
2023/03/28 08:24:14;;;;;;;20.42;5.00;;;;;;;;;;4991621;28;99799;-78
2023/03/28 08:26:58;;;;;;;17.25;4.45;;;;;;;;;;4982626;28;99563;-78
2023/03/28 08:29:25;;;;;;;11.18;4.50;;;;;;;;;;4991685;28;99047;-80
2023/03/28 08:31:51;;;;;;;17.63;4.38;;;;;;;;;;4995523;28;99210;-79
2023/03/28 08:34:18;;;;;;;15.93;4.95;;;;;;;;;;4993346;28;98751;-79
2023/03/28 08:36:44;;;;;;;14.43;4.63;;;;;;;;;;4993677;28;98537;-79
2023/03/28 08:39:10;;;;;;;12.90;4.25;;;;;;;;;;4988768;28;99340;-78
2023/03/28 08:41:39;;;;;;;14.32;4.25;;;;;;;;;;4994202;28;100817;-79
2023/03/28 08:44:23;;;;;;;16.55;4.20;;;;;;;;;;4988046;28;98818;-78
2023/03/28 08:46:53;;;;;;;12.00;4.30;;;;;;;;;;4990723;28;99322;-79
2023/03/28 08:49:19;;;;;;;18.90;4.78;;;;;;;;;;4995308;28;98593;-79
2023/03/28 08:51:56;;;;;;;12.55;4.50;;;;;;;;;;4994770;28;100009;-79
2023/03/28 08:54:26;;;;;;;15.70;4.30;;;;;;;;;;4991533;28;100566;-78
2023/03/28 08:56:54;;;;;;;19.65;4.40;;;;;;;;;;4986963;28;99492;-79
2023/03/28 08:59:44;;;;;;;13.77;4.20;;;;;;;;;;4975832;28;99209;-78
2023/03/28 09:02:16;;;;;;;15.00;4.27;;;;;;;;;;4972970;28;99430;-79
2023/03/28 09:04:43;;;;;;;16.10;4.40;;;;;;;;;;4991580;28;98582;-79
2023/03/28 09:07:23;;;;;;;11.40;3.55;;;;;;;;;;4993989;28;101461;-79
2023/03/28 09:10:06;;;;;;;13.23;3.83;;;;;;;;;;4996715;28;98570;-78
2023/03/28 09:12:38;;;;;;;13.82;3.40;;;;;;;;;;4987331;28;99264;-79
2023/03/28 09:15:20;;;;;;;10.05;3.78;;;;;;;;;;4995235;28;99419;-79
2023/03/28 09:17:56;;;;;;;20.20;4.40;;;;;;;;;;4995895;28;98878;-79
2023/03/28 09:20:33;;;;;;;9.00;3.13;;;;;;;;;;4996173;28;99820;-78
2023/03/28 09:23:09;;;;;;;6.18;2.25;;;;;;;;;;4984434;28;99597;-78
2023/03/28 09:25:54;;;;;;;9.45;2.58;;;;;;;;;;4996127;28;97754;-78
2023/03/28 09:28:33;;;;;;;6.53;2.78;;;;;;;;;;4997505;28;98464;-79
2023/03/28 09:31:00;;;;;;;8.00;2.67;;;;;;;;;;4991656;28;100499;-79
2023/03/28 09:33:30;;;;;;;10.38;3.08;;;;;;;;;;4988566;28;99644;-78
2023/03/28 09:35:56;;;;;;;10.18;3.83;;;;;;;;;;4992555;28;100014;-78
2023/03/28 09:38:43;;;;;;;19.75;2.95;;;;;;;;;;4991636;28;98553;-78
2023/03/28 09:41:18;;;;;;;4.47;2.65;;;;;;;;;;4987293;28;99175;-77
2023/03/28 09:43:53;;;;;;;15.05;3.33;;;;;;;;;;4983146;28;99457;-78
2023/03/28 09:46:23;;;;;;;12.15;2.58;;;;;;;;;;4984746;28;98766;-79
2023/03/28 09:48:50;;;;;;;17.55;3.08;;;;;;;;;;4992169;28;99109;-79
2023/03/28 09:51:18;;;;;;;11.73;3.28;;;;;;;;;;4994552;28;98088;-79
2023/03/28 09:53:45;;;;;;;14.85;3.38;;;;;;;;;;4991125;28;98897;-78
2023/03/28 09:56:24;;;;;;;15.43;3.58;;;;;;;;;;4990664;28;101192;-78
2023/03/28 09:58:52;;;;;;;15.48;2.90;;;;;;;;;;4988906;28;99344;-78
2023/03/28 10:01:40;;;;;;;13.77;2.92;;;;;;;;;;4991256;28;100257;-78
2023/03/28 10:04:12;;;;;;;14.90;2.85;;;;;;;;;;4979880;28;99551;-78
2023/03/28 10:06:39;;;;;;;14.63;2.50;;;;;;;;;;4972311;28;98550;-78
2023/03/28 10:09:09;;;;;;;11.73;3.15;;;;;;;;;;4983696;28;99098;-78
2023/03/28 10:11:55;;;;;;;11.65;3.25;;;;;;;;;;4990020;28;99688;-78
2023/03/28 10:14:28;;;;;;;11.45;3.63;;;;;;;;;;4990306;28;98643;-78
2023/03/28 10:16:56;;;;;;;13.63;2.97;;;;;;;;;;4983834;28;98527;-78
2023/03/28 10:19:23;;;;;;;9.98;2.17;;;;;;;;;;4974349;28;98710;-78
2023/03/28 10:21:49;;;;;;;9.30;2.30;;;;;;;;;;4991589;28;99192;-78
2023/03/28 10:24:19;;;;;;;11.00;2.97;;;;;;;;;;4989514;28;100254;-78
2023/03/28 10:26:45;;;;;;;10.20;2.58;;;;;;;;;;4989484;28;98530;-78
2023/03/28 10:29:12;;;;;;;11.52;2.10;;;;;;;;;;4990278;28;102085;-78
2023/03/28 10:31:45;;;;;;;6.00;2.63;;;;;;;;;;4990020;28;99975;-78
2023/03/28 10:34:22;;;;;;;6.55;1.85;;;;;;;;;;4991295;28;98557;-78
2023/03/28 10:36:48;;;;;;;12.23;2.10;;;;;;;;;;4994268;28;100232;-79
2023/03/28 10:39:33;;;;;;;4.45;1.92;;;;;;;;;;4990508;28;98549;-78
2023/03/28 10:42:00;;;;;;;7.13;1.83;;;;;;;;;;4984061;28;99315;-79
2023/03/28 10:44:30;;;;;;;4.70;2.00;;;;;;;;;;4979106;28;99563;-78
2023/03/28 10:47:01;;;;;;;5.35;1.45;;;;;;;;;;4992418;28;98778;-78
2023/03/28 10:49:29;;;;;;;4.13;1.30;;;;;;;;;;4983948;28;99320;-78
2023/03/28 10:51:56;;;;;;;6.72;1.50;;;;;;;;;;4971476;28;99766;-78
2023/03/28 10:54:40;;;;;;;4.43;1.50;;;;;;;;;;4993530;28;99433;-79
2023/03/28 10:57:24;;;;;;;5.57;1.50;;;;;;;;;;4975563;28;99521;-79
2023/03/28 10:59:54;;;;;;;5.32;1.75;;;;;;;;;;4975202;28;98513;-79
2023/03/28 11:02:35;;;;;;;10.20;1.60;;;;;;;;;;4987786;28;100277;-79
2023/03/28 11:05:04;;;;;;;7.22;1.63;;;;;;;;;;4983677;28;100700;-79
2023/03/28 11:07:34;;;;;;;7.07;2.03;;;;;;;;;;4990795;28;97760;-77
2023/03/28 11:10:19;;;;;;;6.75;1.85;;;;;;;;;;4991341;28;98555;-78
2023/03/28 11:12:50;;;;;;;5.95;1.80;;;;;;;;;;4990690;28;99800;-78
2023/03/28 11:15:21;;;;;;;13.20;2.28;;;;;;;;;;4986692;28;99580;-78
2023/03/28 11:17:50;;;;;;;8.18;2.00;;;;;;;;;;4988257;28;101068;-78
2023/03/28 11:20:35;;;;;;;6.53;2.03;;;;;;;;;;4994424;28;99951;-78
2023/03/28 11:23:05;;;;;;;10.30;2.03;;;;;;;;;;4989737;28;99487;-78
2023/03/28 11:25:35;;;;;;;11.55;2.30;;;;;;;;;;4988158;28;99524;-80
2023/03/28 11:28:20;;;;;;;13.07;3.83;;;;;;;;;;4978907;28;98999;-79
2023/03/28 11:30:47;;;;;;;3.40;1.73;;;;;;;;;;4974661;28;99149;-79
2023/03/28 11:33:17;;;;;;;8.38;2.72;;;;;;;;;;4987375;28;99945;-79
2023/03/28 11:35:49;;;;;;;9.95;2.42;;;;;;;;;;4986281;28;98638;-79
2023/03/28 11:38:21;;;;;;;13.65;2.78;;;;;;;;;;4989706;28;99144;-76
2023/03/28 11:40:56;;;;;;;9.27;3.00;;;;;;;;;;4988030;28;100303;-76
2023/03/28 11:43:28;;;;;;;9.95;2.90;;;;;;;;;;4991935;28;98574;-77
2023/03/28 11:45:58;;;;;;;12.45;3.05;;;;;;;;;;4968499;28;100727;-77
2023/03/28 11:48:33;;;;;;;9.73;2.37;;;;;;;;;;4973479;28;98525;-73
2023/03/28 11:51:21;;;;;;;28.42;3.05;;;;;;;;;;4990429;28;99250;-77
2023/03/28 11:53:52;;;;;;;14.05;2.50;;;;;;;;;;4977921;28;99848;-75
2023/03/28 11:56:26;;;;;;;5.80;2.30;;;;;;;;;;4989327;28;98998;-77
2023/03/28 11:58:57;;;;;;;13.02;3.28;;;;;;;;;;4983050;28;99655;-77
2023/03/28 12:01:26;;;;;;;8.65;2.78;;;;;;;;;;4978417;28;99778;-77
2023/03/28 12:03:53;;;;;;;11.15;2.03;;;;;;;;;;4985099;28;98713;-77
2023/03/28 12:06:41;;;;;;;6.57;1.98;;;;;;;;;;4972809;28;100935;-76
2023/03/28 12:09:30;;;;;;;8.27;2.15;;;;;;;;;;4977860;28;99438;-76
2023/03/28 12:12:03;;;;;;;7.07;2.33;;;;;;;;;;4983594;28;98828;-76
2023/03/28 12:14:42;;;;;;;5.78;1.75;;;;;;;;;;4989602;28;99453;-76
2023/03/28 12:17:17;;;;;;;6.43;2.00;;;;;;;;;;4989814;28;98545;-77
2023/03/28 12:19:47;;;;;;;9.88;2.28;;;;;;;;;;4984759;28;99311;-76
2023/03/28 12:22:13;;;;;;;5.63;1.90;;;;;;;;;;4989349;28;98575;-76
2023/03/28 12:25:15;;;;;;;4.40;2.22;;;;;;;;;;4990579;28;97784;-76
2023/03/28 12:27:54;;;;;;;4.72;1.95;;;;;;;;;;4965800;28;98712;-76
2023/03/28 12:30:28;;;;;;;4.95;1.60;;;;;;;;;;4965664;28;102008;-76
2023/03/28 12:33:13;;;;;;;8.05;2.60;;;;;;;;;;4959371;28;100251;-77
2023/03/28 12:35:40;;;;;;;7.57;2.28;;;;;;;;;;4948571;28;99513;-76
2023/03/28 12:38:28;;;;;;;7.07;1.85;;;;;;;;;;4960037;28;99667;-76
2023/03/28 12:40:58;;;;;;;10.10;2.10;;;;;;;;;;4949227;28;99242;-76
2023/03/28 12:43:37;;;;;;;3.67;1.85;;;;;;;;;;4962503;28;100530;-76
2023/03/28 12:46:04;;;;;;;13.02;2.30;;;;;;;;;;4948897;28;98727;-76
2023/03/28 12:48:36;;;;;;;6.63;2.17;;;;;;;;;;4964923;28;99181;-76
2023/03/28 12:51:06;;;;;;;5.18;2.10;;;;;;;;;;4964999;28;101606;-76
2023/03/28 12:53:32;;;;;;;10.65;2.05;;;;;;;;;;4968191;28;98599;-76
2023/03/28 12:56:00;;;;;;;5.93;2.38;;;;;;;;;;4966375;28;99784;-76
2023/03/28 12:58:29;;;;;;;8.07;2.10;;;;;;;;;;4963392;28;100117;-76
2023/03/28 13:01:07;;;;;;;7.55;2.05;;;;;;;;;;4970209;28;100021;-76
2023/03/28 13:03:37;;;;;;;7.68;2.20;;;;;;;;;;4983452;28;99687;-76
2023/03/28 13:06:42;;;;;;;7.07;2.05;;;;;;;;;;4991771;28;98744;-76
2023/03/28 13:09:14;;;;;;;9.68;3.25;;;;;;;;;;4967009;28;99263;-76
2023/03/28 13:11:59;;;;;;;9.43;3.03;;;;;;;;;;4970201;28;99481;-76
2023/03/28 13:14:33;;;;;;;11.38;2.70;;;;;;;;;;4972659;28;98834;-76
2023/03/28 13:17:00;;;;;;;9.75;2.90;;;;;;;;;;4969622;28;98822;-76
2023/03/28 13:19:41;;;;;;;16.42;3.92;;;;;;;;;;4964190;28;100340;-76
2023/03/28 13:22:27;;;;;;;7.50;3.15;;;;;;;;;;4964172;28;99481;-76
2023/03/28 13:24:54;;;;;;;12.65;4.10;;;;;;;;;;4968297;28;101335;-77
2023/03/28 13:27:31;;;;;;;10.63;3.50;;;;;;;;;;4958792;28;100390;-76
2023/03/28 13:29:59;;;;;;;11.82;2.97;;;;;;;;;;4967572;28;100300;-76
2023/03/28 13:32:31;;;;;;;8.73;2.75;;;;;;;;;;4968774;28;99523;-76
2023/03/28 13:35:00;;;;;;;14.10;3.22;;;;;;;;;;4970079;28;98570;-78
2023/03/28 13:37:47;;;;;;;7.78;3.63;;;;;;;;;;4970033;28;100768;-77
2023/03/28 13:40:32;;;;;;;10.80;2.60;;;;;;;;;;4971258;28;98627;-77
2023/03/28 13:42:58;;;;;;;6.90;2.78;;;;;;;;;;5002582;28;99305;-77
2023/03/28 13:45:25;;;;;;;9.57;2.72;;;;;;;;;;4991491;28;99781;-76
2023/03/28 13:47:52;;;;;;;7.07;2.67;;;;;;;;;;4976125;28;98743;-76
2023/03/28 13:50:36;;;;;;;5.72;2.72;;;;;;;;;;4971837;28;99232;-77
2023/03/28 13:53:03;;;;;;;12.23;3.60;;;;;;;;;;4977426;28;99487;-76
2023/03/28 13:55:29;;;;;;;8.88;2.90;;;;;;;;;;4983075;28;99281;-76
2023/03/28 13:57:59;;;;;;;9.73;2.80;;;;;;;;;;4990796;28;99262;-76
2023/03/28 14:00:26;;;;;;;11.88;3.20;;;;;;;;;;4990582;28;99993;-76
2023/03/28 14:02:53;;;;;;;6.70;2.40;;;;;;;;;;4992301;28;100347;-76
2023/03/28 14:05:23;;;;;;;8.93;3.17;;;;;;;;;;4989671;28;99637;-76
2023/03/28 14:07:51;;;;;;;5.45;2.60;;;;;;;;;;4979708;28;98485;-77
2023/03/28 14:10:26;;;;;;;8.13;2.88;;;;;;;;;;4980789;28;100153;-78
2023/03/28 14:12:53;;;;;;;13.15;2.80;;;;;;;;;;4981506;28;99800;-77
2023/03/28 14:15:22;;;;;;;7.43;2.90;;;;;;;;;;4973261;28;99638;-77
2023/03/28 14:17:49;;;;;;;6.13;2.60;;;;;;;;;;4976792;28;100378;-78
2023/03/28 14:20:16;;;;;;;7.78;2.45;;;;;;;;;;4982740;28;99605;-77
2023/03/28 14:22:47;;;;;;;11.15;2.50;;;;;;;;;;4981796;28;98588;-77
2023/03/28 14:25:26;;;;;;;6.20;2.50;;;;;;;;;;4979480;28;99419;-78
2023/03/28 14:27:54;;;;;;;10.57;2.80;;;;;;;;;;4986204;28;100426;-78
2023/03/28 14:30:25;;;;;;;7.07;2.80;;;;;;;;;;4984797;28;99282;-77
2023/03/28 14:33:21;;;;;;;6.68;2.65;;;;;;;;;;4970506;28;101071;-77
2023/03/28 14:35:56;;;;;;;8.27;2.60;;;;;;;;;;4980525;28;98973;-78
2023/03/28 14:38:26;;;;;;;11.85;2.45;;;;;;;;;;4988707;28;99558;-78
2023/03/28 14:40:53;;;;;;;;;;;;;;;;;;4991307;28;101292;-77
2023/03/28 14:43:24;;;;;;;13.35;3.28;;;;;;;;;;4990909;28;118956;-77
2023/03/28 14:45:52;;;;;;;12.07;3.15;;;;;;;;;;4992296;28;99405;-78
2023/03/28 14:48:22;;;;;;;13.05;4.70;;;;;;;;;;4993028;28;98599;-77
2023/03/28 14:50:49;;;;;;;7.95;3.33;;;;;;;;;;4990560;28;99155;-77
2023/03/28 14:53:26;;;;;;;11.18;3.50;;;;;;;;;;4984854;28;103920;-78